Terminal Aerodrome Forecast
Issued by NWS

Home | Current Version | Previous Version | Text Only | Print | Product List | Glossary On
Versions: 1 2 3 4 5 6 7 8 9 10 11 12 13 14 15 16 17 18 19 20 21 22 23
068
FTUS43 KDLH 211730
TAFBRD
TAF
KBRD 211730Z 2118/2218 14007G17KT P6SM BKN060
     FM220000 12006KT P6SM BKN035
     FM220800 10005KT 4SM -SHRA VCTS BKN030CB
     FM221100 VRB03KT 3SM BR BKN003
     FM221500 29004KT P6SM BKN010
     FM221700 29005KT P6SM SCT050=

USA.gov is the U.S. government's official web portal to all federal, state and local government web resources and services.